createdAt,value
2019-05-20T00:00:07.769Z,3.17
2019-05-20T00:02:36.974Z,2.53
2019-05-20T00:05:06.440Z,3.40
2019-05-20T00:07:35.664Z,3.50
2019-05-20T00:10:10.575Z,2.50
2019-05-20T00:12:39.844Z,3.20
2019-05-20T00:15:09.280Z,2.80
2019-05-20T00:17:38.541Z,3.37
2019-05-20T00:20:08.304Z,2.60
2019-05-20T00:22:37.589Z,2.80
2019-05-20T00:25:06.898Z,1.90
2019-05-20T00:27:36.073Z,2.10
2019-05-20T00:30:05.903Z,1.90
2019-05-20T00:32:41.375Z,3.23
2019-05-20T00:35:06.989Z,2.27
2019-05-20T00:37:36.116Z,3.87
2019-05-20T00:40:06.110Z,2.63
2019-05-20T00:42:35.238Z,3.73
2019-05-20T00:45:05.551Z,3.90
2019-05-20T00:47:34.822Z,2.47
2019-05-20T00:50:04.289Z,1.80
2019-05-20T00:52:33.514Z,2.10
2019-05-20T00:55:02.841Z,2.30
2019-05-20T00:57:32.562Z,2.67
2019-05-20T01:00:02.816Z,2.27
2019-05-20T01:02:32.117Z,3.67
2019-05-20T01:05:01.346Z,2.27
2019-05-20T01:07:30.472Z,2.07
2019-05-20T01:09:59.620Z,2.13
2019-05-20T01:12:28.748Z,2.23
2019-05-20T01:14:58.020Z,2.13
2019-05-20T01:17:27.286Z,4.50
2019-05-20T01:19:56.508Z,2.80
2019-05-20T01:22:25.632Z,3.03
2019-05-20T01:24:54.901Z,6.70
2019-05-20T01:27:24.103Z,4.53
2019-05-20T01:29:53.231Z,2.20
2019-05-20T01:32:22.351Z,2.03
2019-05-20T01:34:51.492Z,2.70
2019-05-20T01:37:20.628Z,3.77
2019-05-20T01:39:49.908Z,2.60
2019-05-20T01:42:19.058Z,1.73
2019-05-20T01:44:48.329Z,2.60
2019-05-20T01:47:17.472Z,1.67
2019-05-20T01:49:46.664Z,1.80
2019-05-20T01:52:15.837Z,1.83
2019-05-20T01:54:45.001Z,3.40
2019-05-20T01:57:14.248Z,1.70
2019-05-20T01:59:43.729Z,3.17
2019-05-20T02:02:13.032Z,1.87
2019-05-20T02:04:42.174Z,4.50
2019-05-20T02:07:11.312Z,3.00
2019-05-20T02:09:40.530Z,3.97
2019-05-20T02:12:09.644Z,4.40
2019-05-20T02:14:44.574Z,2.47
2019-05-20T02:17:13.791Z,5.80
2019-05-20T02:19:42.989Z,18.03
2019-05-20T02:22:12.151Z,3.13
2019-05-20T02:24:41.317Z,2.50
2019-05-20T02:27:10.713Z,2.73
2019-05-20T02:29:39.841Z,3.67
2019-05-20T02:32:08.988Z,5.83
2019-05-20T02:34:38.189Z,3.00
2019-05-20T02:37:07.393Z,3.13
2019-05-20T02:39:36.624Z,3.80
2019-05-20T02:42:05.766Z,2.23
2019-05-20T02:44:34.885Z,3.13
2019-05-20T02:47:04.021Z,3.00
2019-05-20T02:49:33.194Z,6.40
2019-05-20T02:52:02.336Z,3.50
2019-05-20T02:54:31.448Z,3.23
2019-05-20T02:57:00.659Z,3.37
2019-05-20T02:59:29.829Z,2.43
2019-05-20T03:01:58.994Z,2.20
2019-05-20T03:04:28.218Z,2.77
2019-05-20T03:06:57.722Z,2.13
2019-05-20T03:09:26.860Z,3.73
2019-05-20T03:11:55.976Z,2.77
2019-05-20T03:14:25.117Z,3.20
2019-05-20T03:16:54.240Z,2.77
2019-05-20T03:19:23.385Z,4.20
2019-05-20T03:21:52.514Z,2.60
2019-05-20T03:24:21.617Z,7.10
2019-05-20T03:26:50.933Z,3.80
2019-05-20T03:29:20.054Z,5.67
2019-05-20T03:31:49.279Z,2.83
2019-05-20T03:34:44.205Z,3.70
2019-05-20T03:36:49.423Z,3.80
2019-05-20T03:39:18.530Z,3.57
2019-05-20T03:41:47.830Z,3.30
2019-05-20T03:44:17.021Z,3.87
2019-05-20T03:46:46.208Z,2.90
2019-05-20T03:49:15.436Z,5.47
2019-05-20T03:51:44.637Z,4.60
2019-05-20T03:54:13.857Z,3.70
2019-05-20T03:56:42.970Z,5.63
2019-05-20T03:59:12.153Z,6.80
2019-05-20T04:01:41.375Z,3.53
2019-05-20T04:04:10.503Z,4.27
2019-05-20T04:06:39.730Z,5.93
2019-05-20T04:09:08.950Z,4.07
2019-05-20T04:11:38.111Z,3.90
2019-05-20T04:14:07.281Z,5.63
2019-05-20T04:16:36.502Z,4.53
2019-05-20T04:19:05.657Z,4.17
2019-05-20T04:21:34.808Z,4.73
2019-05-20T04:24:04.009Z,4.60
2019-05-20T04:26:33.348Z,13.83
2019-05-20T04:29:03.049Z,4.92
2019-05-20T04:31:32.237Z,9.50
2019-05-20T04:34:03.759Z,6.27
2019-05-20T04:36:32.915Z,3.60
2019-05-20T04:39:02.284Z,4.20
2019-05-20T04:41:31.426Z,4.80
2019-05-20T04:44:00.581Z,3.13
2019-05-20T04:46:29.776Z,2.40
2019-05-20T04:48:58.933Z,7.07
2019-05-20T04:51:28.176Z,8.27
2019-05-20T04:53:57.306Z,3.40
2019-05-20T04:56:29.192Z,4.67
2019-05-20T04:58:57.502Z,5.50
2019-05-20T05:01:26.742Z,5.17
2019-05-20T05:03:55.902Z,4.90
2019-05-20T05:06:25.185Z,4.90
2019-05-20T05:08:54.340Z,4.23
2019-05-20T05:11:23.536Z,5.70
2019-05-20T05:13:53.774Z,3.93
2019-05-20T05:16:23.121Z,5.13
2019-05-20T05:18:52.461Z,3.83
2019-05-20T05:21:21.652Z,3.47
2019-05-20T05:23:58.794Z,6.10
2019-05-20T05:26:21.696Z,3.83
2019-05-20T05:28:50.895Z,5.57
2019-05-20T05:31:21.145Z,6.20
2019-05-20T05:33:50.325Z,6.20
2019-05-20T05:36:19.485Z,4.27
2019-05-20T05:38:48.632Z,3.30
2019-05-20T05:41:17.812Z,4.53
2019-05-20T05:43:47.033Z,3.30
2019-05-20T05:46:16.197Z,4.30
2019-05-20T05:48:45.440Z,5.17
2019-05-20T05:51:14.689Z,3.90
2019-05-20T05:53:43.833Z,6.50
2019-05-20T05:56:12.983Z,3.43
2019-05-20T05:58:42.130Z,4.13
2019-05-20T06:01:11.344Z,3.90
2019-05-20T06:03:40.468Z,6.73
2019-05-20T06:06:12.621Z,4.10
2019-05-20T06:08:40.696Z,7.40
2019-05-20T06:11:09.845Z,4.10
2019-05-20T06:13:38.987Z,4.30
2019-05-20T06:16:08.183Z,4.43
2019-05-20T06:18:37.421Z,7.47
2019-05-20T06:21:06.573Z,7.93
2019-05-20T06:23:35.781Z,4.63
2019-05-20T06:26:04.987Z,7.80
2019-05-20T06:28:34.207Z,10.17
2019-05-20T06:31:03.459Z,9.07
2019-05-20T06:33:33.776Z,7.77
2019-05-20T06:36:03.064Z,11.27
2019-05-20T06:38:45.711Z,12.77
2019-05-20T06:41:16.357Z,9.27
2019-05-20T06:43:45.519Z,12.37
2019-05-20T06:46:14.798Z,14.10
2019-05-20T06:48:43.973Z,9.77
2019-05-20T06:51:13.121Z,10.33
2019-05-20T06:53:42.300Z,21.93
2019-05-20T06:56:11.433Z,14.77
2019-05-20T06:58:40.690Z,11.20
2019-05-20T07:01:09.907Z,10.67
2019-05-20T07:03:39.121Z,13.40
2019-05-20T07:06:08.392Z,14.10
2019-05-20T07:08:37.678Z,13.40
2019-05-20T07:11:06.894Z,12.93
2019-05-20T07:13:36.125Z,14.63
2019-05-20T07:16:05.277Z,12.27
2019-05-20T07:18:34.511Z,13.27
2019-05-20T07:21:03.719Z,11.10
2019-05-20T07:23:33.244Z,15.83
2019-05-20T07:26:02.427Z,14.57
2019-05-20T07:28:31.607Z,12.57
2019-05-20T07:31:00.857Z,17.23
2019-05-20T07:33:29.973Z,10.77
2019-05-20T07:35:59.162Z,16.40
2019-05-20T07:38:28.314Z,13.80
2019-05-20T07:40:57.603Z,10.70
2019-05-20T07:43:27.036Z,12.07
2019-05-20T07:45:56.767Z,13.07
2019-05-20T07:48:26.467Z,9.90
2019-05-20T07:50:56.464Z,15.73
2019-05-20T07:53:26.085Z,14.50
2019-05-20T07:56:06.058Z,14.80
2019-05-20T07:58:37.592Z,12.90
2019-05-20T08:01:06.850Z,11.57
2019-05-20T08:03:38.619Z,15.67
2019-05-20T08:06:07.058Z,16.23
2019-05-20T08:08:36.318Z,18.30
2019-05-20T08:11:05.780Z,15.20
2019-05-20T08:13:35.044Z,15.43
2019-05-20T08:16:05.280Z,16.03
2019-05-20T08:18:34.417Z,13.17
2019-05-20T08:21:03.618Z,15.13
2019-05-20T08:23:32.959Z,14.00
2019-05-20T08:26:02.133Z,13.40
2019-05-20T08:28:31.332Z,15.83
2019-05-20T08:31:00.533Z,14.13
2019-05-20T08:33:29.893Z,17.20
2019-05-20T08:35:59.082Z,18.80
2019-05-20T08:38:28.304Z,15.10
2019-05-20T08:40:57.513Z,16.30
2019-05-20T08:43:26.773Z,16.77
2019-05-20T08:45:55.913Z,15.87
2019-05-20T08:48:25.093Z,17.50
2019-05-20T08:50:54.242Z,16.40
2019-05-20T08:53:23.465Z,15.90
2019-05-20T08:55:52.730Z,14.10
2019-05-20T08:58:22.012Z,18.50
2019-05-20T09:00:51.161Z,19.20
2019-05-20T09:03:20.349Z,17.50
2019-05-20T09:05:49.844Z,18.53
2019-05-20T09:08:19.086Z,20.93
2019-05-20T09:10:48.324Z,14.70
2019-05-20T09:13:17.550Z,19.40
2019-05-20T09:15:46.809Z,17.37
2019-05-20T09:18:16.066Z,16.40
2019-05-20T09:20:45.260Z,18.10
2019-05-20T09:23:14.469Z,17.60
2019-05-20T09:25:43.607Z,18.40
2019-05-20T09:28:13.146Z,15.33
2019-05-20T09:30:42.984Z,21.23
2019-05-20T09:33:12.119Z,17.33
2019-05-20T09:35:41.551Z,19.53
2019-05-20T09:38:20.202Z,14.90
2019-05-20T09:40:45.193Z,22.43
2019-05-20T09:43:14.414Z,18.43
2019-05-20T09:45:43.557Z,20.43
2019-05-20T09:48:13.578Z,17.60
2019-05-20T09:50:42.813Z,18.17
2019-05-20T09:53:11.997Z,21.70
2019-05-20T09:55:41.143Z,18.63
2019-05-20T09:58:10.464Z,23.40
2019-05-20T10:00:39.646Z,20.37
2019-05-20T10:03:09.003Z,18.67
2019-05-20T10:05:38.149Z,21.87
2019-05-20T10:08:07.657Z,19.83
2019-05-20T10:10:37.502Z,20.37
2019-05-20T10:13:07.396Z,24.20
2019-05-20T10:15:37.485Z,20.57
2019-05-20T10:18:06.734Z,23.07
2019-05-20T10:20:35.874Z,22.50
2019-05-20T10:23:05.149Z,23.07
2019-05-20T10:25:34.345Z,20.80
2019-05-20T10:28:03.553Z,21.70
2019-05-20T10:30:32.886Z,23.53
2019-05-20T10:33:02.041Z,24.83
2019-05-20T10:35:31.212Z,22.77
2019-05-20T10:38:00.488Z,31.43
2019-05-20T10:40:29.741Z,24.00
2019-05-20T10:42:59.066Z,23.60
2019-05-20T10:45:28.250Z,24.73
2019-05-20T10:47:57.404Z,26.10
2019-05-20T10:50:26.659Z,28.23
2019-05-20T10:52:56.186Z,26.87
2019-05-20T10:55:25.421Z,23.70
2019-05-20T10:57:54.681Z,29.50
2019-05-20T11:00:24.189Z,23.67
2019-05-20T11:02:53.362Z,31.93
2019-05-20T11:05:22.581Z,27.47
2019-05-20T11:07:51.973Z,35.37
2019-05-20T11:10:21.930Z,28.37
2019-05-20T11:12:51.100Z,26.93
2019-05-20T11:15:20.323Z,26.50
2019-05-20T11:17:49.462Z,30.40
2019-05-20T11:20:18.875Z,29.83
2019-05-20T11:22:48.039Z,28.70
2019-05-20T11:25:17.616Z,27.17
2019-05-20T11:27:46.999Z,25.50
2019-05-20T11:30:17.349Z,31.73
2019-05-20T11:32:46.639Z,31.80
2019-05-20T11:35:16.309Z,28.23
2019-05-20T11:37:45.472Z,29.93
2019-05-20T11:40:15.311Z,32.17
2019-05-20T11:42:44.593Z,38.07
2019-05-20T11:45:15.906Z,38.13
2019-05-20T11:47:45.201Z,37.70
2019-05-20T11:50:14.807Z,42.73
2019-05-20T11:52:43.984Z,38.30
2019-05-20T11:55:13.392Z,43.17
2019-05-20T11:57:44.019Z,39.00
2019-05-20T12:00:13.773Z,42.47
2019-05-20T12:02:43.016Z,44.40
2019-05-20T12:05:13.968Z,39.90
2019-05-20T12:07:43.245Z,48.87
2019-05-20T12:10:12.929Z,39.50
2019-05-20T12:12:45.787Z,41.80
2019-05-20T12:15:13.281Z,39.90
2019-05-20T12:17:42.473Z,38.27
2019-05-20T12:20:12.782Z,44.37
2019-05-20T12:22:42.273Z,41.17
2019-05-20T12:25:11.790Z,46.30
2019-05-20T12:27:40.944Z,39.00
2019-05-20T12:30:10.560Z,36.93
2019-05-20T12:32:39.842Z,38.90
2019-05-20T12:35:10.699Z,36.13
2019-05-20T12:37:40.052Z,35.10
2019-05-20T12:40:09.817Z,40.93
2019-05-20T12:42:39.061Z,35.97
2019-05-20T12:45:10.096Z,38.47
2019-05-20T12:47:39.462Z,45.47
2019-05-20T12:50:08.979Z,39.37
2019-05-20T12:52:57.319Z,33.67
2019-05-20T12:55:26.505Z,38.23
2019-05-20T12:57:55.773Z,36.80
2019-05-20T13:00:26.816Z,43.77
2019-05-20T13:02:55.993Z,42.47
2019-05-20T13:05:25.256Z,38.53
2019-05-20T13:07:54.433Z,39.43
2019-05-20T13:10:29.631Z,36.77
2019-05-20T13:12:54.617Z,36.93
2019-05-20T13:15:23.761Z,43.43
2019-05-20T13:17:52.997Z,38.57
2019-05-20T13:20:22.775Z,40.13
2019-05-20T13:22:51.931Z,37.30
2019-05-20T13:25:21.867Z,39.00
2019-05-20T13:27:51.062Z,35.90
2019-05-20T13:30:21.179Z,37.37
2019-05-20T13:32:50.452Z,35.87
2019-05-20T13:35:19.728Z,41.10
2019-05-20T13:37:49.076Z,41.83
2019-05-20T13:40:19.034Z,39.53
2019-05-20T13:42:48.222Z,40.80
2019-05-20T13:45:18.130Z,36.63
2019-05-20T13:47:47.354Z,41.03
2019-05-20T13:50:16.718Z,37.93
2019-05-20T13:52:46.031Z,39.43
2019-05-20T13:55:15.541Z,35.10
2019-05-20T13:57:44.733Z,35.23
2019-05-20T14:00:14.196Z,37.87
2019-05-20T14:02:43.386Z,39.10
2019-05-20T14:05:12.654Z,39.53
2019-05-20T14:07:41.811Z,43.30
2019-05-20T14:10:11.887Z,37.63
2019-05-20T14:12:41.118Z,38.27
2019-05-20T14:15:11.332Z,38.57
2019-05-20T14:17:40.636Z,36.83
2019-05-20T14:20:11.020Z,37.23
2019-05-20T14:22:40.287Z,39.10
2019-05-20T14:25:10.719Z,40.63
2019-05-20T14:27:39.939Z,40.13
2019-05-20T14:30:09.790Z,38.10
2019-05-20T14:32:39.163Z,49.23
2019-05-20T14:35:08.924Z,40.97
2019-05-20T14:37:38.183Z,39.30
2019-05-20T14:40:07.810Z,40.83
2019-05-20T14:42:36.998Z,38.13
2019-05-20T14:45:07.300Z,41.00
2019-05-20T14:47:36.563Z,34.87
2019-05-20T14:50:06.769Z,43.83
2019-05-20T14:52:35.919Z,42.20
2019-05-20T14:55:05.399Z,39.67
2019-05-20T14:57:34.623Z,37.43
2019-05-20T15:00:04.081Z,41.27
2019-05-20T15:02:33.434Z,39.60
2019-05-20T15:05:03.693Z,45.50
2019-05-20T15:07:32.898Z,45.23
2019-05-20T15:10:02.138Z,42.70
2019-05-20T15:12:31.522Z,49.93
2019-05-20T15:15:00.810Z,42.00
2019-05-20T15:17:29.957Z,47.03
2019-05-20T15:19:59.332Z,47.30
2019-05-20T15:22:28.537Z,45.73
2019-05-20T15:24:57.715Z,53.50
2019-05-20T15:27:27.069Z,43.83
2019-05-20T15:29:56.212Z,49.90
2019-05-20T15:32:25.477Z,46.87
2019-05-20T15:34:54.655Z,47.40
2019-05-20T15:37:23.961Z,50.03
2019-05-20T15:39:53.216Z,50.83
2019-05-20T15:42:22.373Z,43.17
2019-05-20T15:44:51.598Z,52.53
2019-05-20T15:47:20.994Z,48.47
2019-05-20T15:49:50.159Z,55.87
2019-05-20T15:52:19.465Z,48.17
2019-05-20T15:54:48.632Z,47.30
2019-05-20T15:57:17.913Z,48.47
2019-05-20T15:59:47.177Z,43.20
2019-05-20T16:02:16.637Z,50.07
2019-05-20T16:04:45.801Z,45.20
2019-05-20T16:07:15.018Z,43.73
2019-05-20T16:09:44.171Z,47.77
2019-05-20T16:12:13.484Z,48.33
2019-05-20T16:14:42.662Z,38.27
2019-05-20T16:17:11.820Z,46.10
2019-05-20T16:19:41.010Z,33.50
2019-05-20T16:22:10.217Z,39.07
2019-05-20T16:24:40.640Z,39.53
2019-05-20T16:27:11.303Z,38.70
2019-05-20T16:29:40.994Z,43.77
2019-05-20T16:32:10.415Z,36.30
2019-05-20T16:34:39.548Z,40.20
2019-05-20T16:37:08.989Z,40.47
2019-05-20T16:39:38.186Z,37.50
2019-05-20T16:42:07.429Z,38.70
2019-05-20T16:44:36.636Z,35.70
2019-05-20T16:47:05.796Z,36.13
2019-05-20T16:49:34.998Z,37.10
2019-05-20T16:52:04.375Z,32.40
2019-05-20T16:54:33.566Z,33.90
2019-05-20T16:57:03.673Z,33.17
2019-05-20T16:59:32.966Z,32.63
2019-05-20T17:02:02.225Z,30.73
2019-05-20T17:04:31.492Z,30.53
2019-05-20T17:07:00.850Z,28.83
2019-05-20T17:09:30.252Z,30.27
2019-05-20T17:11:59.554Z,31.07
2019-05-20T17:14:28.777Z,31.10
2019-05-20T17:16:59.528Z,34.20
2019-05-20T17:19:28.698Z,30.20
2019-05-20T17:21:57.970Z,47.40
2019-05-20T17:24:27.121Z,30.97
2019-05-20T17:26:57.164Z,31.40
2019-05-20T17:29:26.578Z,31.50
2019-05-20T17:31:55.946Z,34.03
2019-05-20T17:34:25.242Z,42.33
2019-05-20T17:36:54.463Z,40.63
2019-05-20T17:39:23.807Z,41.70
2019-05-20T17:41:53.050Z,40.63
2019-05-20T17:44:22.298Z,40.47
2019-05-20T17:46:51.566Z,41.63
2019-05-20T17:49:20.840Z,51.03
2019-05-20T17:51:50.238Z,48.20
2019-05-20T17:54:19.592Z,45.57
2019-05-20T17:56:48.803Z,45.57
2019-05-20T17:59:18.041Z,53.67
2019-05-20T18:01:47.296Z,45.60
2019-05-20T18:04:18.019Z,51.30
2019-05-20T18:06:47.179Z,50.10
2019-05-20T18:09:16.458Z,54.37
2019-05-20T18:11:45.676Z,49.73
2019-05-20T18:14:14.865Z,56.40
2019-05-20T18:16:44.145Z,54.47
2019-05-20T18:19:13.303Z,54.40
2019-05-20T18:21:43.492Z,57.95
2019-05-20T18:24:12.790Z,56.07
2019-05-20T18:26:42.031Z,62.93
2019-05-20T18:29:11.302Z,58.63
2019-05-20T18:31:40.582Z,63.93
2019-05-20T18:34:09.864Z,57.70
2019-05-20T18:36:39.008Z,62.80
2019-05-20T18:39:08.224Z,62.83
2019-05-20T18:41:37.414Z,79.40
2019-05-20T18:44:06.618Z,68.33
2019-05-20T18:46:35.828Z,68.87
2019-05-20T18:49:05.020Z,70.07
2019-05-20T18:51:34.232Z,65.33
2019-05-20T18:54:03.478Z,64.83
2019-05-20T18:56:32.769Z,69.70
2019-05-20T18:59:02.006Z,72.07
2019-05-20T19:01:39.070Z,72.90
2019-05-20T19:04:02.277Z,72.30
2019-05-20T19:06:31.527Z,75.83
2019-05-20T19:09:00.854Z,81.73
2019-05-20T19:11:30.009Z,86.70
2019-05-20T19:13:59.192Z,79.20
2019-05-20T19:16:28.360Z,81.77
2019-05-20T19:18:58.878Z,85.23
2019-05-20T19:21:28.121Z,78.40
2019-05-20T19:23:57.309Z,90.43
2019-05-20T19:26:26.918Z,88.80
2019-05-20T19:28:56.188Z,92.63
2019-05-20T19:31:25.465Z,90.17
2019-05-20T19:33:54.762Z,86.93
2019-05-20T19:36:24.027Z,88.52
2019-05-20T19:38:54.282Z,94.07
2019-05-20T19:41:23.521Z,92.57
2019-05-20T19:43:52.747Z,89.00
2019-05-20T19:46:22.029Z,90.50
2019-05-20T19:49:10.321Z,97.90
2019-05-20T19:51:39.580Z,95.77
2019-05-20T19:54:08.825Z,89.53
2019-05-20T19:56:38.123Z,100.30
2019-05-20T19:59:07.398Z,87.93
2019-05-20T20:01:37.637Z,92.73
2019-05-20T20:04:07.812Z,88.23
2019-05-20T20:06:37.000Z,87.13
2019-05-20T20:09:07.477Z,93.30
2019-05-20T20:11:36.744Z,90.70
2019-05-20T20:14:05.892Z,86.67
2019-05-20T20:16:35.122Z,91.67
2019-05-20T20:19:04.509Z,81.63
2019-05-20T20:21:33.700Z,85.50
2019-05-20T20:24:02.938Z,84.90
2019-05-20T20:26:32.162Z,83.50
2019-05-20T20:29:01.422Z,82.80
2019-05-20T20:31:30.583Z,79.33
2019-05-20T20:33:59.732Z,83.63
2019-05-20T20:36:28.911Z,82.33
2019-05-20T20:38:58.138Z,82.27
2019-05-20T20:41:27.352Z,93.07
2019-05-20T20:43:56.560Z,85.70
2019-05-20T20:46:25.826Z,85.00
2019-05-20T20:48:55.145Z,85.87
2019-05-20T20:51:24.404Z,88.13
2019-05-20T20:53:53.636Z,90.67
2019-05-20T20:56:25.512Z,83.87
2019-05-20T20:58:53.797Z,89.93
2019-05-20T21:01:22.984Z,91.33
2019-05-20T21:03:52.146Z,87.23
2019-05-20T21:06:21.324Z,83.13
2019-05-20T21:08:50.467Z,88.30
2019-05-20T21:11:19.729Z,84.97
2019-05-20T21:13:49.068Z,80.77
2019-05-20T21:16:18.302Z,83.40
2019-05-20T21:18:47.539Z,78.60
2019-05-20T21:21:16.749Z,81.60
2019-05-20T21:23:45.998Z,77.17
2019-05-20T21:26:15.175Z,68.37
2019-05-20T21:28:44.350Z,69.53
2019-05-20T21:31:13.667Z,77.43
2019-05-20T21:33:43.712Z,75.78
2019-05-20T21:36:12.944Z,87.20
2019-05-20T21:38:42.184Z,76.90
2019-05-20T21:41:11.342Z,75.60
2019-05-20T21:43:40.524Z,83.07
2019-05-20T21:46:09.737Z,79.23
2019-05-20T21:48:38.921Z,73.97
2019-05-20T21:51:08.101Z,74.90
2019-05-20T21:53:37.322Z,71.50
2019-05-20T21:56:06.474Z,70.10
2019-05-20T21:58:35.753Z,75.27
2019-05-20T22:01:05.268Z,76.90
2019-05-20T22:03:34.517Z,73.10
2019-05-20T22:06:03.729Z,74.47
2019-05-20T22:08:32.922Z,72.63
2019-05-20T22:11:02.296Z,67.17
2019-05-20T22:13:31.528Z,77.67
2019-05-20T22:16:00.798Z,68.60
2019-05-20T22:18:29.981Z,69.47
2019-05-20T22:20:59.166Z,70.73
2019-05-20T22:23:42.527Z,66.07
2019-05-20T22:26:11.700Z,69.50
2019-05-20T22:28:40.898Z,65.33
2019-05-20T22:31:10.156Z,61.30
2019-05-20T22:33:42.323Z,73.33
2019-05-20T22:36:10.180Z,58.20
2019-05-20T22:38:39.340Z,67.03
2019-05-20T22:41:08.544Z,62.20
2019-05-20T22:43:37.724Z,58.63
2019-05-20T22:46:07.032Z,63.13
2019-05-20T22:48:36.449Z,61.97
2019-05-20T22:51:05.684Z,56.70
2019-05-20T22:53:34.853Z,55.20
2019-05-20T22:56:04.029Z,60.47
2019-05-20T22:58:33.353Z,55.60
2019-05-20T23:01:02.635Z,56.63
2019-05-20T23:03:31.748Z,57.70
2019-05-20T23:06:00.908Z,53.17
2019-05-20T23:08:30.146Z,57.47
2019-05-20T23:10:59.346Z,56.03
2019-05-20T23:13:28.524Z,54.97
2019-05-20T23:15:57.684Z,55.13
2019-05-20T23:18:26.828Z,55.47
2019-05-20T23:20:56.059Z,52.93
2019-05-20T23:23:25.621Z,47.50
2019-05-20T23:25:56.471Z,46.93
2019-05-20T23:28:25.969Z,48.10
2019-05-20T23:30:55.119Z,47.90
2019-05-20T23:33:24.394Z,43.23
2019-05-20T23:35:53.571Z,42.67
2019-05-20T23:38:22.774Z,44.80
2019-05-20T23:40:51.981Z,44.07
2019-05-20T23:43:21.164Z,41.10
2019-05-20T23:45:50.317Z,41.23
2019-05-20T23:48:19.528Z,44.00
2019-05-20T23:50:48.676Z,36.90
2019-05-20T23:53:17.916Z,42.43
2019-05-20T23:55:47.062Z,35.50
2019-05-20T23:58:16.698Z,34.30
